Time;durP1;ratioP1;P1;durP2;ratioP2;P2;SDS_P1;SDS_P2;PMS_P1;PMS_P2;Temp;Humidity;BMP_temperature;BMP_pressure;BME280_temperature;BME280_humidity;BME280_pressure;Samples;Min_cycle;Max_cycle;Signal;HPM_P1;HPM_P2
2021/05/01 00:01:03;;;;;;;10.30;8.90;;;8.80;99.90;;;9.49;100.00;100119.44;5005676;28;62172;-61
2021/05/01 00:04:14;;;;;;;9.10;8.20;;;8.70;99.90;;;9.52;100.00;100124.44;5001001;28;65052;-61
2021/05/01 00:07:26;;;;;;;9.00;7.97;;;8.70;99.90;;;9.49;100.00;100132.78;4999889;28;65587;-62
2021/05/01 00:10:37;;;;;;;9.97;8.60;;;8.70;99.90;;;9.56;100.00;100139.19;4989222;28;90362;-62
2021/05/01 00:13:49;;;;;;;8.87;7.87;;;8.70;99.90;;;9.59;100.00;100122.84;4995435;28;72796;-63
2021/05/01 00:17:01;;;;;;;8.40;7.47;;;8.70;99.90;;;9.62;100.00;100114.53;5003527;28;57126;-62
2021/05/01 00:20:13;;;;;;;9.83;8.67;;;8.70;99.90;;;9.58;100.00;100107.81;5007618;28;50864;-63
2021/05/01 00:23:24;;;;;;;9.37;8.30;;;8.70;99.90;;;9.57;100.00;100100.78;5009898;28;46059;-63
2021/05/01 00:26:35;;;;;;;9.40;8.60;;;8.70;99.90;;;9.55;100.00;100105.44;5006823;28;49108;-63
2021/05/01 00:29:46;;;;;;;9.20;8.27;;;8.70;99.90;;;9.54;100.00;100101.09;4986111;28;44383;-63
2021/05/01 00:32:59;;;;;;;9.40;8.20;;;8.70;99.90;;;9.59;100.00;100114.00;4976968;28;70091;-62
2021/05/01 00:39:38;;;;;;;9.40;8.50;;;8.70;99.90;;;9.51;100.00;100129.97;4957966;28;77278;-63
2021/05/01 00:42:50;;;;;;;8.47;7.67;;;8.70;99.90;;;9.49;100.00;100124.78;4973303;28;94869;-62
2021/05/01 00:46:04;;;;;;;9.67;7.90;;;8.70;99.90;;;9.60;100.00;100137.03;4980493;28;82505;-62
2021/05/01 00:49:16;;;;;;;10.83;8.43;;;8.70;99.90;;;9.46;100.00;100132.25;4997787;28;52804;-63
2021/05/01 00:52:27;;;;;;;10.80;8.70;;;8.70;99.90;;;9.40;100.00;100128.34;4989897;28;70774;-63
2021/05/01 00:55:51;;;;;;;11.93;8.53;;;8.70;99.90;;;9.37;100.00;100115.34;5000054;28;56099;-63
2021/05/01 00:59:02;;;;;;;8.40;7.57;;;8.70;99.90;;;9.41;100.00;100111.34;4997933;28;66932;-63
2021/05/01 01:02:15;;;;;;;9.20;8.30;;;8.70;99.90;;;9.40;100.00;100100.81;4979968;28;81045;-63
2021/05/01 01:08:47;;;;;;;9.17;8.27;;;8.60;99.90;;;9.28;100.00;100081.53;4976114;28;81254;-63
2021/05/01 01:12:00;;;;;;;8.77;7.97;;;8.60;99.90;;;9.27;100.00;100074.53;4965103;28;98631;-63
2021/05/01 01:15:14;;;;;;;9.80;8.80;;;8.60;99.90;;;9.33;100.00;100092.59;4958865;28;99249;-63
2021/05/01 01:18:26;;;;;;;9.67;8.73;;;8.60;99.90;;;9.38;100.00;100098.31;4976542;28;95089;-63
2021/05/01 01:25:47;;;;;;;10.33;8.70;;;8.50;99.90;;;9.24;100.00;100106.88;4934550;28;85035;-61
2021/05/01 01:28:58;;;;;;;10.57;9.07;;;8.50;99.90;;;9.19;100.00;100107.31;4987465;28;70437;-62
2021/05/01 01:32:10;;;;;;;8.97;8.00;;;8.50;99.90;;;9.19;100.00;100106.50;4986816;28;72624;-63
2021/05/01 01:35:23;;;;;;;10.77;9.20;;;8.40;99.90;;;9.20;100.00;100102.81;4966676;28;90627;-63
2021/05/01 01:38:35;;;;;;;10.17;9.10;;;8.50;99.90;;;9.42;100.00;100091.66;4965642;28;94433;-60
2021/05/01 01:41:47;;;;;;;9.60;8.67;;;8.40;99.90;;;9.52;100.00;100084.38;4973653;28;95562;-62
2021/05/01 01:44:58;;;;;;;8.70;7.80;;;8.40;99.90;;;9.26;100.00;100089.72;4970048;28;95697;-63
2021/05/01 01:48:10;;;;;;;9.50;8.17;;;8.40;99.90;;;9.19;100.00;100091.31;4965978;28;96901;-62
2021/05/01 01:51:21;;;;;;;10.57;8.40;;;8.30;99.90;;;9.23;100.00;100106.03;4966300;28;92773;-61
2021/05/01 01:54:32;;;;;;;9.80;8.33;;;8.30;99.90;;;9.19;100.00;100112.66;4986645;28;88056;-62
2021/05/01 01:57:45;;;;;;;9.67;8.20;;;8.30;99.90;;;9.13;100.00;100113.28;4988749;28;79765;-62
2021/05/01 02:01:10;;;;;;;10.43;7.80;;;8.30;99.90;;;9.11;100.00;100112.59;4995110;28;70887;-60
2021/05/01 02:04:33;;;;;;;10.67;8.23;;;8.30;99.90;;;9.17;100.00;100109.31;4969651;28;77597;-62
2021/05/01 02:07:57;;;;;;;10.70;8.63;;;8.30;99.90;;;9.18;100.00;100102.97;4974746;28;93020;-63
2021/05/01 02:11:15;;;;;;;9.60;8.70;;;8.30;99.90;;;9.14;100.00;100098.97;4956784;28;77922;-63
2021/05/01 02:14:27;;;;;;;10.07;8.87;;;8.30;99.90;;;9.13;100.00;100088.44;4959688;28;89393;-62
2021/05/01 02:17:38;;;;;;;10.40;9.30;;;8.30;99.90;;;9.17;100.00;100093.28;4959609;28;87698;-63
2021/05/01 02:20:52;;;;;;;9.60;8.50;;;8.20;99.90;;;9.17;100.00;100087.94;4959507;28;87946;-62
2021/05/01 02:24:03;;;;;;;12.17;8.90;;;8.30;99.90;;;9.12;100.00;100081.41;4909737;28;92618;-62
2021/05/01 02:27:14;;;;;;;10.40;8.43;;;8.20;99.90;;;9.12;100.00;100084.09;4930681;28;85956;-63
2021/05/01 02:30:28;;;;;;;11.50;9.33;;;8.20;99.90;;;9.05;100.00;100102.53;4934160;28;90513;-62
2021/05/01 02:33:39;;;;;;;10.40;9.40;;;8.20;99.90;;;9.04;100.00;100094.66;4950497;28;91002;-62
2021/05/01 02:36:50;;;;;;;11.40;9.43;;;8.20;99.90;;;9.03;100.00;100099.16;4949756;28;96538;-63
2021/05/01 02:40:01;;;;;;;11.00;9.03;;;8.10;99.90;;;9.05;100.00;100086.50;4946823;28;91768;-62
2021/05/01 02:43:14;;;;;;;10.03;9.10;;;8.10;99.90;;;8.99;100.00;100073.78;4947479;28;89142;-62
2021/05/01 02:53:31;;;;;;;10.07;9.07;;;8.00;99.90;;;9.03;100.00;100083.16;4948169;28;92522;-62
2021/05/01 02:56:42;;;;;;;10.93;9.73;;;7.90;99.90;;;9.13;100.00;100089.28;4947020;28;90847;-60
2021/05/01 02:59:53;;;;;;;11.77;9.90;;;8.00;99.90;;;9.18;100.00;100084.28;4942265;28;94793;-62
2021/05/01 03:03:06;;;;;;;10.53;9.00;;;8.00;99.90;;;8.91;100.00;100077.22;4939600;28;96204;-62
2021/05/01 03:06:17;;;;;;;12.20;10.30;;;8.00;99.90;;;8.93;100.00;100069.91;4936516;28;94086;-62
2021/05/01 03:09:28;;;;;;;12.57;10.03;;;8.00;99.90;;;8.84;100.00;100075.31;4936888;28;99320;-63
2021/05/01 03:12:51;;;;;;;10.63;9.53;;;7.90;99.90;;;8.83;100.00;100071.81;4919618;28;99597;-62
2021/05/01 03:16:02;;;;;;;10.67;9.57;;;8.00;99.90;;;8.78;100.00;100073.28;4936267;28;99471;-62
2021/05/01 03:19:14;;;;;;;10.07;9.00;;;7.90;99.90;;;8.91;100.00;100066.53;4930041;28;100170;-62
2021/05/01 03:22:26;;;;;;;11.83;9.97;;;7.90;99.90;;;8.82;100.00;100054.13;4926163;28;99656;-62
2021/05/01 03:25:38;;;;;;;10.73;9.33;;;8.00;99.90;;;8.77;100.00;100056.44;4926752;28;99897;-62
2021/05/01 03:28:49;;;;;;;11.53;9.00;;;7.90;99.90;;;8.93;100.00;100067.22;4936033;28;99715;-61
2021/05/01 03:32:00;;;;;;;10.37;9.30;;;7.90;99.90;;;8.76;100.00;100081.41;4951261;28;98200;-62
2021/05/01 03:35:14;;;;;;;10.77;9.50;;;7.90;99.90;;;8.75;100.00;100084.22;4936918;28;98514;-62
2021/05/01 03:38:25;;;;;;;11.33;10.03;;;7.90;99.90;;;8.72;100.00;100076.53;4936456;28;100186;-59
2021/05/01 03:41:48;;;;;;;11.07;9.37;;;7.90;99.90;;;8.92;100.00;100084.22;4938954;28;99930;-61
2021/05/01 03:44:59;;;;;;;10.80;9.53;;;7.90;99.90;;;8.83;100.00;100090.47;4937206;28;99738;-61
2021/05/01 03:48:34;;;;;;;13.83;10.80;;;7.90;99.90;;;8.82;100.00;100088.81;4934021;28;100064;-61
2021/05/01 03:51:47;;;;;;;11.70;10.23;;;7.90;99.90;;;8.78;100.00;100087.41;4875639;28;99742;-61
2021/05/01 03:54:58;;;;;;;11.07;9.87;;;7.90;99.90;;;9.11;100.00;100090.41;4884422;28;97240;-61
2021/05/01 03:58:10;;;;;;;11.63;9.87;;;7.90;99.90;;;9.16;100.00;100085.44;4938729;28;100618;-62
2021/05/01 04:01:21;;;;;;;12.00;10.80;;;8.00;99.90;;;8.77;100.00;100083.09;4966177;28;91044;-62
2021/05/01 04:04:32;;;;;;;11.03;9.80;;;8.00;99.90;;;8.91;100.00;100079.88;4942593;28;99912;-62
2021/05/01 04:07:51;;;;;;;10.67;9.57;;;8.00;99.90;;;8.80;100.00;100096.13;4919953;28;99704;-61
2021/05/01 04:11:02;;;;;;;13.50;10.77;;;8.00;99.90;;;8.72;100.00;100090.72;4939591;28;100130;-62
2021/05/01 04:17:45;;;;;;;13.27;11.80;;;8.00;99.90;;;8.83;100.00;100087.81;4955410;28;99757;-62
2021/05/01 04:20:57;;;;;;;13.20;10.83;;;8.00;99.90;;;9.02;100.00;100084.97;4958735;28;97798;-61
2021/05/01 04:27:42;;;;;;;12.37;11.17;;;8.00;99.90;;;8.83;100.00;100087.81;4952090;28;99705;-61
2021/05/01 04:30:54;;;;;;;13.60;11.10;;;8.10;99.90;;;8.92;100.00;100094.06;4953096;28;99992;-63
2021/05/01 04:34:05;;;;;;;13.67;11.43;;;8.00;99.90;;;8.98;100.00;100094.31;4970862;28;99094;-61
2021/05/01 04:37:17;;;;;;;15.27;11.90;;;8.10;99.90;;;8.94;100.00;100097.41;4949394;28;98712;-62
2021/05/01 04:40:30;;;;;;;14.83;12.53;;;8.10;99.90;;;8.85;100.00;100090.34;4953375;28;99194;-61
2021/05/01 04:43:44;;;;;;;14.13;12.53;;;8.10;99.90;;;8.85;100.00;100099.19;4959622;28;96001;-62
2021/05/01 04:46:56;;;;;;;13.33;11.47;;;8.10;99.90;;;9.33;100.00;100108.63;4979019;28;85962;-61
2021/05/01 04:50:27;;;;;;;13.53;12.13;;;8.20;99.90;;;9.05;100.00;100101.69;4965395;28;87149;-62
2021/05/01 04:53:38;;;;;;;12.57;11.27;;;8.20;99.90;;;9.11;100.00;100101.94;5000765;28;67878;-60
2021/05/01 04:56:50;;;;;;;17.40;14.40;;;8.20;99.90;;;9.14;100.00;100098.97;5005862;28;54230;-62
2021/05/01 05:00:01;;;;;;;16.07;14.37;;;8.30;99.90;;;9.10;100.00;100104.75;4982239;28;53121;-62
2021/05/01 05:03:12;;;;;;;13.93;12.33;;;8.30;99.90;;;9.14;100.00;100114.13;4981574;28;71154;-62
2021/05/01 05:06:23;;;;;;;14.07;11.73;;;8.40;99.90;;;9.16;100.00;100110.28;5003410;28;52186;-62
2021/05/01 05:09:34;;;;;;;18.20;13.03;;;8.40;99.90;;;9.41;100.00;100103.31;5009765;28;44408;-62
2021/05/01 05:12:58;;;;;;;14.23;12.43;;;8.50;99.90;;;9.06;100.00;100109.53;4969673;28;93088;-62
2021/05/01 05:16:09;;;;;;;15.47;12.97;;;8.50;99.90;;;9.33;100.00;100109.47;4944201;28;98847;-62
2021/05/01 05:19:21;;;;;;;15.47;13.00;;;8.50;99.90;;;9.15;100.00;100113.97;4971003;28;92666;-61
2021/05/01 05:22:32;;;;;;;15.63;13.17;;;8.60;99.90;;;9.11;100.00;100130.44;4967921;28;74136;-62
2021/05/01 05:25:43;;;;;;;14.10;12.53;;;8.60;99.90;;;9.08;100.00;100128.91;4966022;28;89197;-61
2021/05/01 05:28:55;;;;;;;18.40;13.63;;;8.60;99.90;;;9.04;100.00;100124.88;4952782;28;97247;-61
2021/05/01 05:32:18;;;;;;;16.57;12.97;;;8.60;99.90;;;9.19;100.00;100126.00;4925805;28;96315;-62
2021/05/01 05:35:30;;;;;;;14.27;12.20;;;8.60;99.90;;;9.29;100.00;100126.75;4912447;28;99514;-61
2021/05/01 05:42:00;;;;;;;14.57;12.37;;;8.60;99.90;;;9.43;100.00;100117.38;4963882;28;88052;-62
2021/05/01 05:45:12;;;;;;;15.77;13.07;;;8.70;99.90;;;9.30;100.00;100111.59;4972148;28;82905;-62
2021/05/01 05:48:23;;;;;;;13.77;12.10;;;8.70;99.90;;;9.41;100.00;100114.00;4977954;28;50359;-61
2021/05/01 05:55:14;;;;;;;16.63;13.57;;;8.80;99.90;;;9.25;100.00;100113.91;4932933;28;98307;-62
2021/05/01 05:58:26;;;;;;;15.07;13.20;;;8.80;99.90;;;9.34;100.00;100115.63;4941293;28;99527;-61
2021/05/01 06:01:39;;;;;;;19.03;14.63;;;8.80;99.90;;;9.32;100.00;100120.28;4957297;28;89848;-62
2021/05/01 06:04:57;;;;;;;16.43;14.30;;;8.90;99.90;;;9.49;100.00;100121.28;4963399;28;68663;-61
2021/05/01 06:08:09;;;;;;;15.50;13.90;;;8.90;99.90;;;9.30;100.00;100125.78;4977000;28;52693;-62
2021/05/01 06:11:20;;;;;;;15.27;13.47;;;8.90;99.90;;;9.62;100.00;100119.88;4647908;28;9762240;-62
2021/05/01 06:14:33;;;;;;;15.03;13.43;;;8.90;99.90;;;9.58;100.00;100118.50;4997898;28;55674;-61
2021/05/01 06:17:48;;;;;;;16.13;13.97;;;8.90;99.90;;;9.69;100.00;100120.06;4995747;28;60766;-61
2021/05/01 06:21:00;;;;;;;16.37;13.53;;;9.00;99.90;;;9.83;100.00;100134.69;4985425;28;56748;-62
2021/05/01 06:24:12;;;;;;;16.33;14.47;;;9.10;99.90;;;9.85;100.00;100138.06;4991580;28;60216;-62
2021/05/01 06:38:18;;;;;;;15.87;14.23;;;9.50;99.90;;;9.77;100.00;100122.78;4980448;28;77707;-62
2021/05/01 06:41:37;;;;;;;16.70;14.97;;;9.50;99.90;;;9.74;100.00;100112.44;4974821;28;89197;-63
2021/05/01 06:45:19;;;;;;;15.83;14.23;;;9.60;99.90;;;9.94;100.00;100115.72;4966016;28;88291;-61
2021/05/01 06:48:34;;;;;;;16.37;14.50;;;9.70;99.90;;;9.99;100.00;100111.59;4975238;28;87787;-62
2021/05/01 06:51:48;;;;;;;17.70;15.33;;;9.70;99.90;;;10.02;100.00;100113.09;4988206;28;81545;-62
2021/05/01 06:58:54;;;;;;;17.30;15.30;;;9.90;99.90;;;10.34;100.00;100105.28;4924655;28;66715;-61
2021/05/01 07:02:07;;;;;;;17.63;15.73;;;9.90;99.90;;;10.17;100.00;100111.50;4989651;28;80819;-62
2021/05/01 07:05:18;;;;;;;18.37;16.47;;;10.00;99.90;;;10.36;100.00;100111.31;4963432;28;82340;-63
2021/05/01 07:08:31;;;;;;;16.77;14.97;;;10.10;99.90;;;10.91;100.00;100107.25;4973233;28;77482;-62
2021/05/01 07:11:54;;;;;;;16.10;14.50;;;10.30;99.90;;;11.47;100.00;100104.63;4976831;28;70764;-63
2021/05/01 07:15:33;;;;;;;19.23;14.27;;;10.50;99.90;;;11.73;100.00;100107.13;4985280;28;76330;-62
2021/05/01 07:18:45;;;;;;;17.70;14.40;;;10.80;99.90;;;11.37;100.00;100103.13;4988085;28;74873;-63
2021/05/01 07:21:56;;;;;;;17.63;13.57;;;11.10;99.90;;;11.93;100.00;100104.09;4984492;28;70817;-61
2021/05/01 07:25:21;;;;;;;17.20;14.43;;;11.40;99.90;;;11.72;100.00;100109.97;4988348;28;83195;-60
2021/05/01 07:28:35;;;;;;;15.50;13.47;;;11.70;99.90;;;12.48;100.00;100098.72;4982928;28;66988;-63
2021/05/01 07:31:50;;;;;;;14.77;13.17;;;12.10;99.90;;;12.63;100.00;100094.25;4990954;28;57756;-64
2021/05/01 07:35:04;;;;;;;15.50;14.00;;;12.60;99.90;;;11.62;100.00;100107.44;4985319;28;66196;-63
2021/05/01 07:42:45;;;;;;;13.60;12.20;;;13.30;99.90;;;14.23;100.00;100099.47;4948135;28;57562;-63
2021/05/01 07:46:15;;;;;;;12.47;11.27;;;13.80;99.90;;;14.51;100.00;100100.50;4974032;28;48550;-62
2021/05/01 07:49:27;;;;;;;12.80;11.53;;;14.40;99.90;;;14.79;100.00;100092.56;4975500;28;48940;-63
2021/05/01 07:56:04;;;;;;;11.37;10.17;;;15.40;97.70;;;14.22;100.00;100095.09;4997044;28;51978;-62
2021/05/01 07:59:16;;;;;;;12.02;10.35;;;15.90;92.40;;;14.95;100.00;100102.28;4996740;28;49055;-63
2021/05/01 08:02:36;;;;;;;12.95;11.73;;;16.30;90.90;;;12.46;100.00;100108.78;5005543;28;45700;-63
2021/05/01 08:09:25;;;;;;;11.75;10.55;;;16.60;73.90;;;12.84;100.00;100109.75;5001454;28;48237;-62
2021/05/01 08:12:36;;;;;;;12.18;10.93;;;16.30;73.30;;;14.17;100.00;100106.44;4993450;28;49470;-62
2021/05/01 08:15:49;;;;;;;11.50;10.40;;;16.10;78.60;;;13.94;100.00;100108.38;5001198;28;49876;-62
2021/05/01 08:19:06;;;;;;;10.50;9.40;;;16.10;79.20;;;13.54;100.00;100101.53;4996718;28;58311;-62
2021/05/01 08:25:43;;;;;;;11.13;10.02;;;16.20;75.40;;;13.39;100.00;100097.97;4965437;28;89781;-62
2021/05/01 08:29:01;;;;;;;8.70;7.90;;;16.20;74.10;;;14.23;100.00;100100.31;4990626;28;79327;-64
2021/05/01 08:32:14;;;;;;;9.27;8.32;;;16.10;75.90;;;13.62;100.00;100085.31;4991551;28;71601;-61
2021/05/01 08:35:25;;;;;;;10.38;9.38;;;16.00;72.50;;;13.92;100.00;100087.03;4986416;28;70956;-61
2021/05/01 08:38:36;;;;;;;8.68;7.95;;;15.80;74.80;;;13.86;100.00;100086.94;4966277;28;71872;-62
2021/05/01 08:45:29;;;;;;;9.13;7.80;;;15.60;75.70;;;13.70;100.00;100082.56;4921478;28;85078;-61
2021/05/01 08:48:42;;;;;;;7.85;7.05;;;15.60;74.50;;;13.73;100.00;100079.50;4981334;28;81354;-62
2021/05/01 08:51:53;;;;;;;9.10;7.25;;;15.50;73.70;;;13.52;100.00;100079.38;4975318;28;91803;-61
2021/05/01 08:55:05;;;;;;;8.75;7.85;;;15.40;72.90;;;13.08;100.00;100081.91;4970202;28;78222;-62
2021/05/01 08:58:23;;;;;;;7.55;6.78;;;15.30;72.90;;;13.33;100.00;100083.41;4985512;28;65203;-61
2021/05/01 09:01:36;;;;;;;8.85;6.68;;;15.20;71.20;;;13.87;100.00;100083.22;4993966;28;61862;-61
2021/05/01 09:05:03;;;;;;;7.20;6.35;;;15.20;71.40;;;13.20;100.00;100089.41;4996522;28;54022;-61
2021/05/01 09:11:50;;;;;;;6.60;5.97;;;15.30;69.50;;;15.00;100.00;100081.78;4994720;28;44731;-61
2021/05/01 09:15:14;;;;;;;9.70;7.68;;;15.40;70.20;;;15.54;100.00;100086.66;4982706;28;57675;-62
2021/05/01 09:18:26;;;;;;;7.03;6.32;;;15.80;69.70;;;16.32;100.00;100076.63;4979242;28;52947;-61
2021/05/01 09:21:40;;;;;;;6.90;6.20;;;16.30;68.00;;;14.02;100.00;100079.53;4987846;28;47068;-63
2021/05/01 09:24:58;;;;;;;6.13;5.50;;;16.80;62.10;;;15.78;100.00;100085.41;4984068;28;49229;-62
2021/05/01 09:28:24;;;;;;;7.68;6.38;;;17.10;61.50;;;16.75;100.00;100079.94;4995778;28;38141;-62
2021/05/01 09:35:21;;;;;;;7.35;6.60;;;17.90;58.00;;;14.76;100.00;100071.38;4966321;28;60889;-63
2021/05/01 09:38:33;;;;;;;6.40;5.80;;;18.30;55.80;;;16.65;100.00;100066.81;4978222;28;60160;-62
2021/05/01 09:41:47;;;;;;;6.55;5.95;;;18.50;55.50;;;15.74;100.00;100054.47;4987048;28;51590;-61
2021/05/01 09:45:18;;;;;;;6.70;5.95;;;18.80;53.80;;;17.06;100.00;100036.94;4994640;28;43838;-62
2021/05/01 09:52:36;;;;;;;7.22;6.63;;;19.30;53.50;;;16.27;100.00;100061.00;4978460;28;54448;-62
2021/05/01 09:56:05;;;;;;;6.68;6.07;;;19.60;52.30;;;14.42;100.00;100055.03;4984269;28;57551;-61
2021/05/01 09:59:27;;;;;;;8.52;6.88;;;19.80;48.50;;;14.61;100.00;100046.34;4975625;28;56391;-63
2021/05/01 10:02:41;;;;;;;7.75;7.00;;;19.70;49.00;;;16.01;100.00;100050.06;4947565;28;47217;-62
2021/05/01 10:05:52;;;;;;;7.75;7.05;;;19.60;49.90;;;16.56;100.00;100048.25;4985335;28;46845;-61
2021/05/01 10:09:53;;;;;;;6.57;6.00;;;19.70;50.30;;;17.11;100.00;100044.44;4991667;28;44576;-62
2021/05/01 10:17:16;;;;;;;6.70;6.10;;;20.90;49.30;;;18.69;100.00;100043.34;5000313;28;20790;-63
2021/05/01 10:24:30;;;;;;;6.60;6.00;;;22.20;45.60;;;14.56;100.00;100048.78;4878417;28;44559;-63
2021/05/01 10:28:01;;;;;;;5.65;5.15;;;21.70;43.30;;;16.41;100.00;100054.63;4911987;28;39860;-62
2021/05/01 10:31:28;;;;;;;6.28;5.28;;;21.10;45.30;;;15.87;100.00;100049.16;4909678;28;34356;-63
2021/05/01 10:34:41;;;;;;;6.57;5.88;;;20.90;46.10;;;16.48;100.00;100049.25;4939831;28;47312;-63
2021/05/01 10:37:57;;;;;;;6.07;5.57;;;20.60;46.50;;;16.00;100.00;100051.09;4984857;28;43516;-63
2021/05/01 10:41:25;;;;;;;6.43;5.78;;;20.40;46.90;;;15.84;100.00;100056.81;4980972;28;49944;-63
2021/05/01 10:44:36;;;;;;;7.32;6.63;;;20.20;47.30;;;15.71;100.00;100058.38;4972102;28;54564;-63
2021/05/01 10:47:48;;;;;;;6.63;6.03;;;19.90;48.00;;;14.79;100.00;100065.63;4958304;28;49765;-61
2021/05/01 10:51:39;;;;;;;6.35;5.75;;;19.60;47.00;;;16.12;100.00;100044.09;4975530;28;52624;-62
2021/05/01 10:55:19;;;;;;;6.28;5.68;;;19.20;48.30;;;16.10;100.00;100048.88;4981114;28;48084;-63
2021/05/01 10:58:53;;;;;;;5.80;5.20;;;19.10;49.30;;;16.22;100.00;100055.38;4986825;28;41962;-63
2021/05/01 11:02:07;;;;;;;6.03;5.43;;;19.00;49.40;;;15.93;100.00;100055.63;4985360;28;44813;-62
2021/05/01 11:05:24;;;;;;;6.47;5.88;;;19.00;49.20;;;16.20;100.00;100049.31;4987132;28;42981;-63
2021/05/01 11:09:04;;;;;;;6.10;5.50;;;18.90;49.20;;;16.41;100.00;100037.59;4990346;28;38850;-62
2021/05/01 11:12:18;;;;;;;5.47;4.97;;;18.90;49.60;;;16.38;100.00;100044.22;4998486;28;44651;-61
2021/05/01 11:19:23;;;;;;;6.70;4.93;;;18.70;49.50;;;16.66;100.00;100046.03;5012403;28;29339;-61
2021/05/01 11:22:41;;;;;;;5.28;4.82;;;18.70;49.60;;;17.24;100.00;100044.47;5013270;28;36366;-61
2021/05/01 11:25:54;;;;;;;6.35;5.35;;;18.80;49.60;;;15.57;100.00;100040.47;5004272;28;37756;-61
2021/05/01 11:29:06;;;;;;;5.13;4.68;;;18.90;48.00;;;15.23;100.00;100045.72;5011661;28;33257;-64
2021/05/01 11:32:17;;;;;;;5.95;5.20;;;18.70;47.70;;;16.32;100.00;100036.13;5003897;28;44331;-62
2021/05/01 11:35:32;;;;;;;5.55;5.15;;;18.50;48.70;;;15.02;100.00;100043.88;5000191;28;48715;-63
2021/05/01 11:38:50;;;;;;;5.50;5.00;;;18.60;47.50;;;17.20;100.00;100037.78;4996436;28;48020;-63
2021/05/01 11:42:02;;;;;;;4.90;4.50;;;18.90;47.70;;;17.11;100.00;100036.34;4998190;28;47191;-62
2021/05/01 11:45:16;;;;;;;5.07;4.53;;;19.50;47.60;;;15.88;100.00;100040.03;4998676;28;51638;-63
2021/05/01 11:48:35;;;;;;;22.52;20.55;;;19.90;45.30;;;15.99;100.00;100035.94;4985373;28;50133;-63
2021/05/01 11:52:01;;;;;;;11.35;10.40;;;19.70;44.80;;;16.88;100.00;100029.44;5002706;28;48894;-63
2021/05/01 11:55:20;;;;;;;5.93;5.40;;;19.50;46.20;;;17.06;100.00;100023.44;5012571;28;37038;-64
2021/05/01 11:58:53;;;;;;;7.68;7.07;;;19.60;45.80;;;16.39;100.00;100007.25;5014880;28;35095;-62
2021/05/01 12:02:11;;;;;;;4.63;4.22;;;19.60;46.00;;;16.44;100.00;100002.09;5011416;28;45093;-62
2021/05/01 12:05:41;;;;;;;5.32;4.82;;;19.80;45.80;;;16.45;100.00;99988.38;5007926;28;39749;-64
2021/05/01 12:08:55;;;;;;;5.72;5.25;;;19.60;45.10;;;17.25;100.00;99983.94;4992720;28;40659;-62
2021/05/01 12:12:14;;;;;;;5.03;4.53;;;19.60;46.10;;;17.43;100.00;99984.13;5007506;28;42346;-63
2021/05/01 12:15:30;;;;;;;5.35;4.63;;;19.80;46.50;;;16.89;100.00;99989.75;5006037;28;46964;-62
2021/05/01 12:18:58;;;;;;;5.60;4.63;;;20.00;45.70;;;17.59;100.00;99978.28;5000087;28;48816;-63
2021/05/01 12:22:10;;;;;;;4.63;4.22;;;20.20;45.40;;;18.08;100.00;99973.38;4998009;28;47453;-63
2021/05/01 12:25:56;;;;;;;5.78;4.72;;;20.50;45.60;;;16.47;100.00;99978.19;5004418;28;50012;-63
2021/05/01 12:29:49;;;;;;;5.57;4.18;;;20.60;44.00;;;16.27;100.00;99962.97;4896983;28;54255;-64
2021/05/01 12:33:45;;;;;;;5.40;5.00;;;20.40;44.60;;;17.40;100.00;99948.56;4994255;28;57611;-63
2021/05/01 12:37:06;;;;;;;5.10;4.65;;;20.30;45.00;;;17.85;100.00;99955.75;4918657;28;45117;-63
2021/05/01 12:44:33;;;;;;;5.45;4.95;;;20.50;45.40;;;16.97;100.00;99938.19;4966212;28;51620;-65
2021/05/01 12:48:08;;;;;;;5.13;4.63;;;20.70;43.90;;;17.05;100.00;99951.50;4950051;28;53983;-65
2021/05/01 12:51:54;;;;;;;4.78;4.38;;;20.60;44.20;;;16.59;100.00;99953.28;5001525;28;48921;-64
2021/05/01 12:58:58;;;;;;;4.65;4.25;;;20.20;43.30;;;16.90;100.00;99939.25;4992702;28;52494;-63
2021/05/01 13:09:46;;;;;;;4.75;4.35;;;19.50;45.20;;;16.27;100.00;99926.03;4963422;28;50531;-64
2021/05/01 13:17:18;;;;;;;4.97;4.57;;;19.40;45.60;;;15.91;100.00;99920.91;4956483;28;60365;-63
2021/05/01 13:21:02;;;;;;;5.32;4.75;;;19.10;45.10;;;16.04;100.00;99912.88;4969671;28;53799;-60
2021/05/01 13:24:13;;;;;;;4.45;4.07;;;18.70;45.90;;;16.19;100.00;99922.69;4915979;28;51926;-63
2021/05/01 13:27:26;;;;;;;5.88;5.28;;;18.50;46.90;;;16.40;100.00;99922.53;4910659;28;60867;-61
2021/05/01 13:30:51;;;;;;;6.75;5.90;;;18.40;47.40;;;15.72;100.00;99927.03;4977888;28;53540;-63
2021/05/01 13:34:15;;;;;;;5.05;4.55;;;18.30;47.10;;;16.63;100.00;99920.31;4975119;28;64428;-64
2021/05/01 13:37:28;;;;;;;4.80;4.30;;;18.20;47.20;;;17.76;100.00;99911.03;4977241;28;53019;-64
2021/05/01 13:40:46;;;;;;;5.40;4.82;;;18.40;47.90;;;17.65;100.00;99913.59;4977586;28;55115;-62
2021/05/01 13:44:03;;;;;;;4.50;4.10;;;18.90;47.00;;;18.12;100.00;99917.75;4978929;28;52152;-63
2021/05/01 13:47:14;;;;;;;4.80;4.40;;;19.30;46.70;;;16.91;100.00;99913.88;4972524;28;49490;-64
2021/05/01 13:50:32;;;;;;;5.38;4.47;;;19.60;45.00;;;17.69;100.00;99928.31;4972917;28;57761;-63
2021/05/01 13:57:25;;;;;;;4.63;4.22;;;20.30;44.90;;;16.98;100.00;99920.94;4968295;28;58951;-64
2021/05/01 14:00:38;;;;;;;4.70;4.30;;;20.50;43.20;;;17.66;100.00;99918.78;4974808;28;56002;-63
2021/05/01 14:03:54;;;;;;;4.90;4.32;;;20.50;43.70;;;17.36;100.00;99906.75;4973289;28;56855;-63
2021/05/01 14:07:26;;;;;;;4.28;3.88;;;20.60;43.00;;;17.34;100.00;99915.06;4969746;28;58749;-64
2021/05/01 14:10:40;;;;;;;4.45;4.00;;;20.50;43.20;;;18.49;100.00;99897.13;4969939;28;57665;-64
2021/05/01 14:13:53;;;;;;;4.30;3.90;;;20.60;43.80;;;17.19;100.00;99895.53;4975907;28;58144;-63
2021/05/01 14:17:15;;;;;;;4.97;4.57;;;20.80;43.10;;;15.98;100.00;99900.19;4989589;28;60051;-63
2021/05/01 14:24:09;;;;;;;4.25;3.85;;;19.80;43.00;;;17.23;100.00;99897.63;4980618;28;58454;-60
2021/05/01 14:27:38;;;;;;;4.68;4.28;;;19.30;44.80;;;16.84;100.00;99898.47;4977117;28;55979;-64
2021/05/01 14:34:21;;;;;;;4.78;4.38;;;18.60;44.80;;;15.95;100.00;99895.19;4988729;28;57881;-62
2021/05/01 14:37:33;;;;;;;4.93;4.53;;;18.30;45.60;;;15.74;100.00;99900.72;4975839;28;57671;-63
2021/05/01 14:40:46;;;;;;;5.05;4.43;;;18.00;46.20;;;15.71;100.00;99893.84;4972434;28;64301;-63
2021/05/01 14:44:01;;;;;;;5.63;5.10;;;17.60;47.00;;;15.76;100.00;99885.16;4964519;28;73628;-64
2021/05/01 14:47:15;;;;;;;5.18;4.68;;;17.30;47.90;;;16.13;100.00;99884.66;4984591;28;59848;-62
2021/05/01 14:50:42;;;;;;;5.05;4.55;;;17.00;48.50;;;16.44;100.00;99884.09;4990298;28;59752;-63
2021/05/01 14:53:53;;;;;;;11.68;4.93;;;16.90;49.20;;;16.11;100.00;99884.03;4989663;28;57926;-63
2021/05/01 14:57:35;;;;;;;5.40;4.90;;;16.90;49.60;;;15.77;100.00;99886.81;4982570;28;58983;-64
2021/05/01 15:00:47;;;;;;;5.68;5.18;;;16.80;49.70;;;15.88;100.00;99878.16;4979122;28;53713;-63
2021/05/01 15:04:16;;;;;;;5.68;5.18;;;16.70;50.00;;;16.14;100.00;99872.00;4992986;28;58785;-63
2021/05/01 15:07:27;;;;;;;5.75;5.30;;;16.60;50.50;;;16.34;100.00;99872.84;4985983;28;59716;-63
2021/05/01 15:10:42;;;;;;;6.90;6.18;;;16.60;50.80;;;16.63;100.00;99868.97;4972037;28;59636;-64
2021/05/01 15:13:55;;;;;;;6.55;5.80;;;16.70;51.00;;;16.58;100.00;99866.03;4990419;28;52711;-62
2021/05/01 15:17:30;;;;;;;6.85;6.20;;;16.90;51.20;;;16.66;100.00;99882.09;4984648;28;49701;-63
2021/05/01 15:21:11;;;;;;;6.65;6.05;;;17.00;50.40;;;16.37;100.00;99883.25;4930538;28;51921;-64
2021/05/01 15:24:28;;;;;;;7.18;6.28;;;17.20;50.50;;;16.54;100.00;99883.69;4962511;28;50077;-63
2021/05/01 15:27:39;;;;;;;7.25;6.43;;;17.20;51.20;;;15.79;100.00;99890.16;4989448;28;49960;-63
2021/05/01 15:30:54;;;;;;;6.88;6.28;;;17.10;50.90;;;15.73;100.00;99886.38;4985632;28;50535;-63